CheckWX is a tool to help pilots better visualize weather data.  It is not intended as a substitute for an official pre-flight weather briefing.

03:41:16 UTC

KSWF TAF
Stewart International Airport
New York, New York, USA
KSWF 020218Z 0202/0306 VRB05KT P6SM SKC FM020400 33006KT P6SM FEW250 FM020700 33010KT P6SM FEW250 FM021100 33015G23KT P6SM SCT250 FM021500 34022G30KT P6SM SCT060 FM030100 33022G30KT P6SM OVC050 AMD NOT SKED

Apr-2@
02:00 UTC

Apr-2 @ 02:00 UTC

Apr-2@
04:00 UTC

Apr-2 @ 04:00 UTC

TAF KSWF 020218Z 0202/0306 VRB05KT P6SM SKC
Wind
  • Variable at 5 KTS
Cloud Levels
  • Clear skies

Apr-2@
04:00 UTC

Apr-2 @ 04:00 UTC

Apr-2@
07:00 UTC

Apr-2 @ 07:00 UTC

FM020400 33006KT P6SM FEW250

From

From Standard forecast or significant change

Wind
  • 330° at 6 KTS
Cloud Levels
  • Few at 25,000' AGL

Apr-2@
07:00 UTC

Apr-2 @ 07:00 UTC

Apr-2@
11:00 UTC

Apr-2 @ 11:00 UTC

FM020700 33010KT P6SM FEW250

From

From Standard forecast or significant change

Wind
  • 330° at 10 KTS
Cloud Levels
  • Few at 25,000' AGL

Apr-2@
11:00 UTC

Apr-2 @ 11:00 UTC

Apr-2@
15:00 UTC

Apr-2 @ 15:00 UTC

FM021100 33015G23KT P6SM SCT250

From

From Standard forecast or significant change

Wind
  • 330° at 15 KTS
  • {Gusting to 23 KTS
Cloud Levels
  • Scattered at 25,000' AGL

Apr-2@
15:00 UTC

Apr-2 @ 15:00 UTC

Apr-3@
01:00 UTC

Apr-3 @ 01:00 UTC

FM021500 34022G30KT P6SM SCT060

From

From Standard forecast or significant change

Wind
  • 340° at 22 KTS
  • {Gusting to 30 KTS
Cloud Levels
  • Scattered at 6,000' AGL

Apr-3@
01:00 UTC

Apr-3 @ 01:00 UTC

Apr-3@
06:00 UTC

Apr-3 @ 06:00 UTC

FM030100 33022G30KT P6SM OVC050 AMD NOT SKED

From

From Standard forecast or significant change

Wind
  • 330° at 22 KTS
  • {Gusting to 30 KTS
Cloud Levels
  • Overcast at 5,000' AGL